Route Details

Aircraft Information
Group: Trans-Pacific Ops
Types: B744, MD11
Route Data
Distance: 1386nm
Duration: 3h 25m
Origin METAR: WSSS 010630Z 35011KT 320V020 9999 SCT018 BKN150 30/24 Q1008 NOSIG
Dest. METAR: VHHH 010630Z 27006KT 220V280 9999 FEW025 24/16 Q1014 NOSIG
Freight Data
(for Feb 1, 2023)
Load Factor:
83%
Manifested Cargo: 178,454lbs
Financial History
Total Freight: 448,176lbs
Average Load: 0lbs/flt
Fuel Used: 191,054lbs
Avg. Fuel Used: 0lbs/flt
Fuel Expense: $74,715
Avg. Fuel Expense: $0
Avg. Fuel Cost: $0/lbs
Total Gross Income: $1,931,639
Pilot Pay: $677
Total Expenses: $378,130
Total Revenue: $1,474,970
Average Revenue: $0

Capitol Logistics 804




WSSS
Changi International Airport
Singapore, SG
VHHH
Chek Lap Kok International
Hong Kong, HK